Ascanius — V7FS9 — position and weather

sailwx.info

Track history (hours):
 
Tides and Currents Weather Stations Pressure Air Temp Water Temp Dewpoint Dewpoint Depression Visibility Wind Speed Wind Dir Waves Ship Positions

Ascanius

Last reported at 2015-Mar-27 18:22 UTC. Time now 2015-Mar-27 19:16 UTC.
Position N 38°59' E 117°46'.

Length 225 m; draft 7.2 m.

Type: Cargo ship. MMSI: 538002012.

Date/timePositionNaut miles runAvg speedWind from/ knotsBaromVisibWave heightAir tempDewpointWater temp
2015-Mar-27 18:22N 38°59' E 117°46'0 0.0
2015-Mar-27 17:16N 38°59' E 117°46'0 0.0
2015-Mar-27 16:28N 38°59' E 117°46'0 0.0
2015-Mar-27 15:28N 38°59' E 117°46'0 0.0
2015-Mar-27 14:28N 38°59' E 117°46'0 0.0
2015-Mar-27 13:28N 38°59' E 117°46'0 0.0
2015-Mar-27 12:28N 38°59' E 117°46'0 0.0
2015-Mar-27 11:22N 38°59' E 117°46'0 0.0
2015-Mar-27 10:28N 38°59' E 117°46'0 0.0
2015-Mar-27 09:28N 38°59' E 117°46'0 0.0
2015-Mar-27 08:29N 38°59' E 117°46'0 0.0
2015-Mar-27 07:29N 38°59' E 117°46'0 0.0
2015-Mar-27 06:29N 38°59' E 117°46'0 0.0
2015-Mar-27 05:30N 38°59' E 117°46'0 0.0
2015-Mar-27 04:29N 38°59' E 117°46'0 0.0
2015-Mar-27 03:24N 38°59' E 117°46'0 0.0
2015-Mar-27 02:24N 38°59' E 117°46'0 0.0
2015-Mar-27 01:24N 38°59' E 117°46'0 0.0
2015-Mar-27 00:30N 38°59' E 117°46'0 0.0
2015-Mar-26 23:23N 38°59' E 117°46'0 0.0
2015-Mar-26 22:24N 38°59' E 117°46'0 0.0
2015-Mar-26 21:23N 38°59' E 117°46'0 0.0
2015-Mar-26 20:23N 38°59' E 117°46'0 0.0
2015-Mar-26 19:23N 38°59' E 117°46'0 0.0
2015-Mar-26 18:29N 38°59' E 117°46'0 0.0
2015-Mar-26 17:23N 38°59' E 117°46'0 0.0
2015-Mar-26 16:30N 38°59' E 117°46'0 0.0
2015-Mar-26 15:29N 38°59' E 117°46'0 0.0
2015-Mar-26 14:29N 38°59' E 117°46'0 0.0
2015-Mar-26 13:30N 38°59' E 117°46'0 0.0
2015-Mar-26 12:24N 38°59' E 117°46'0 0.0
2015-Mar-26 11:30N 38°59' E 117°46'0 0.0
2015-Mar-26 10:30N 38°59' E 117°46'0 0.0
2015-Mar-26 09:23N 38°59' E 117°46'0 0.0
2015-Mar-26 08:24N 38°59' E 117°46'0 0.0
2015-Mar-26 06:29N 38°59' E 117°46'1 1.3
2015-Mar-26 05:33N 38°58' E 117°47'1210.6
2015-Mar-26 04:26N 38°56' E 118°02'5 1.0
2015-Mar-25 23:12N 38°57' E 118°09'0 0.1
2015-Mar-25 22:24N 38°57' E 118°09'0 0.1
2015-Mar-25 21:18N 38°57' E 118°09'0 0.0
2015-Mar-25 20:18N 38°57' E 118°09'0 0.0
2015-Mar-25 16:12N 38°57' E 118°09'0 0.0
2015-Mar-25 12:30N 38°57' E 118°09'0 0.0
2015-Mar-24 17:30N 38°57' E 118°08'1 1.3
2015-Mar-24 16:33N 38°56' E 118°09'1010.2
2015-Mar-24 15:33N 38°52' E 118°21'7712.8
2015-Mar-24 09:33N 39°08' E 119°57'1813.6
2015-Mar-24 08:15N 39°18' E 120°16'103 6.5
2015-Mar-23 16:25N 40°18' E 122°05'0 0.0
2015-Mar-23 15:31N 40°18' E 122°05'0 0.0
2015-Mar-23 14:31N 40°18' E 122°05'0 0.0
2015-Mar-23 13:25N 40°18' E 122°05'0 0.0
2015-Mar-23 12:19N 40°18' E 122°05'0 0.0
2015-Mar-23 11:31N 40°18' E 122°05'0 0.0
2015-Mar-23 10:31N 40°18' E 122°05'0 0.0
2015-Mar-23 09:31N 40°18' E 122°05'0 0.0
2015-Mar-23 08:25N 40°18' E 122°05'0 0.0
2015-Mar-23 07:31N 40°18' E 122°05'0 0.0
2015-Mar-23 06:31N 40°18' E 122°05'0 0.0
2015-Mar-23 05:25N 40°18' E 122°05'0 0.0
2015-Mar-23 04:31N 40°18' E 122°05'0 0.0
2015-Mar-23 03:31N 40°18' E 122°05'0 0.0
2015-Mar-23 02:25N 40°18' E 122°05'0 0.0
2015-Mar-23 01:25N 40°18' E 122°05'0 0.0
2015-Mar-23 00:25N 40°18' E 122°05'0 0.0
2015-Mar-22 23:31N 40°18' E 122°05'0 0.0
2015-Mar-22 22:31N 40°18' E 122°05'0 0.0
2015-Mar-22 21:25N 40°18' E 122°05'0 0.0
2015-Mar-22 20:19N 40°18' E 122°05'0 0.0
2015-Mar-22 19:19N 40°18' E 122°05'0 0.0
2015-Mar-22 18:31N 40°18' E 122°05'0 0.0
2015-Mar-22 17:25N 40°18' E 122°05'0 0.0
2015-Mar-22 16:31N 40°18' E 122°05'0 0.0
2015-Mar-22 15:31N 40°18' E 122°05'0 0.0
2015-Mar-22 14:31N 40°18' E 122°05'0 0.0
2015-Mar-22 13:13N 40°18' E 122°05'0 0.0
2015-Mar-22 12:25N 40°18' E 122°05'0 0.0
2015-Mar-22 11:31N 40°18' E 122°05'0 0.0
2015-Mar-22 10:31N 40°18' E 122°05'0 0.0
2015-Mar-22 09:31N 40°18' E 122°05'0 0.0
2015-Mar-22 08:31N 40°18' E 122°05'0 0.0
2015-Mar-22 07:31N 40°18' E 122°05'0 0.0
2015-Mar-22 06:25N 40°18' E 122°05'0 0.0
2015-Mar-22 04:13N 40°18' E 122°05'0 0.0
2015-Mar-22 03:25N 40°18' E 122°05'0 0.0
2015-Mar-22 02:25N 40°18' E 122°05'0 0.0
2015-Mar-22 01:31N 40°18' E 122°05'0 0.0
2015-Mar-22 00:31N 40°18' E 122°05'0 0.0
2015-Mar-21 23:31N 40°18' E 122°05'0 0.0
2015-Mar-21 22:31N 40°18' E 122°05'0 0.0
2015-Mar-21 21:07N 40°18' E 122°05'0 0.0
2015-Mar-21 20:31N 40°18' E 122°05'0 0.0
2015-Mar-21 19:31N 40°18' E 122°05'0 0.0
2015-Mar-21 18:31N 40°18' E 122°05'0 0.0
2015-Mar-21 17:31N 40°18' E 122°05'0 0.0
2015-Mar-21 16:25N 40°18' E 122°05'0 0.0
2015-Mar-21 15:25N 40°18' E 122°05'0 0.0
2015-Mar-21 14:31N 40°18' E 122°05'0 0.0
2015-Mar-21 13:25N 40°18' E 122°05'0 0.0
2015-Mar-21 12:31N 40°18' E 122°05'0 0.0
2015-Mar-21 11:25N 40°18' E 122°05'0 0.0
2015-Mar-21 10:31N 40°18' E 122°05'0 0.0
2015-Mar-21 09:31N 40°18' E 122°05'0 0.0
2015-Mar-21 08:31N 40°18' E 122°05'0 0.0
2015-Mar-21 07:25N 40°18' E 122°05'0 0.0
2015-Mar-21 06:31N 40°18' E 122°05'0 0.0
2015-Mar-21 05:31N 40°18' E 122°05'0 0.0
2015-Mar-21 04:31N 40°18' E 122°05'0 0.0
2015-Mar-21 03:25N 40°18' E 122°05'0 0.0
2015-Mar-21 02:31N 40°18' E 122°05'0 0.0
2015-Mar-21 01:25N 40°18' E 122°05'0 0.0
2015-Mar-21 00:31N 40°18' E 122°05'0 0.0
2015-Mar-20 23:31N 40°18' E 122°05'0 0.0
2015-Mar-20 22:31N 40°18' E 122°05'0 0.0
2015-Mar-20 21:31N 40°18' E 122°05'0 0.0
2015-Mar-20 20:31N 40°18' E 122°05'0 0.0
2015-Mar-20 19:31N 40°18' E 122°05'0 0.0
2015-Mar-20 18:31N 40°18' E 122°05'0 0.0
2015-Mar-20 17:31N 40°18' E 122°05'0 0.0
2015-Mar-20 16:31N 40°18' E 122°05'0 0.0
2015-Mar-20 15:25N 40°18' E 122°05'0 0.0
2015-Mar-20 14:25N 40°18' E 122°05'0 0.0
2015-Mar-20 13:25N 40°18' E 122°05'0 0.0
2015-Mar-20 12:31N 40°18' E 122°05'0 0.0
2015-Mar-20 11:31N 40°18' E 122°05'0 0.0
2015-Mar-20 10:25N 40°18' E 122°05'0 0.0
2015-Mar-20 09:31N 40°18' E 122°05'0 0.0
2015-Mar-20 08:31N 40°18' E 122°05'0 0.0
2015-Mar-20 07:31N 40°18' E 122°05'0 0.0
2015-Mar-20 06:25N 40°18' E 122°05'0 0.0
2015-Mar-20 05:31N 40°18' E 122°05'0 0.0
2015-Mar-20 04:31N 40°18' E 122°05'0 0.0
2015-Mar-20 02:13N 40°18' E 122°05'0 0.0
2015-Mar-20 01:07N 40°18' E 122°05'0 0.0
2015-Mar-20 00:25N 40°18' E 122°05'0 0.0
2015-Mar-19 23:07N 40°18' E 122°05'0 0.0
2015-Mar-19 22:31N 40°18' E 122°05'0 0.0
2015-Mar-19 21:31N 40°18' E 122°05'0 0.0
2015-Mar-19 20:07N 40°18' E 122°05'0 0.0
2015-Mar-19 19:25N 40°18' E 122°05'0 0.0
2015-Mar-19 18:19N 40°18' E 122°05'0 0.0
2015-Mar-19 17:25N 40°18' E 122°05'0 0.0
2015-Mar-19 16:07N 40°18' E 122°05'0 0.0
2015-Mar-19 15:25N 40°18' E 122°05'0 0.0
2015-Mar-19 13:25N 40°18' E 122°05'0 0.0
2015-Mar-19 12:25N 40°18' E 122°05'0 0.0
2015-Mar-19 10:31N 40°18' E 122°05'0 0.0
2015-Mar-19 09:19N 40°18' E 122°05'0 0.0
2015-Mar-19 08:31N 40°18' E 122°05'0 0.0
2015-Mar-19 06:07N 40°18' E 122°05'0 0.0
2015-Mar-19 05:28N 40°18' E 122°05'4 4.7
2015-Mar-19 04:32N 40°18' E 121°59'5 4.4
2015-Mar-19 03:27N 40°19' E 121°53'190 9.5
2015-Mar-18 07:22N 37°19' E 123°15'2814.6
2015-Mar-18 05:27N 36°52' E 123°13'  
Track history (hours):
 
Tides and Currents Weather Stations Pressure Air Temp Water Temp Dewpoint Dewpoint Depression Visibility Wind Speed Wind Dir Waves Ship Positions

Ascanius

Last reported at 2015-Mar-27 18:22 UTC. Time now 2015-Mar-27 19:16 UTC.
Position N 38°59' E 117°46'.

Length 225 m; draft 7.2 m.

Type: Cargo ship. MMSI: 538002012.

Date/timePositionNaut miles runAvg speedWind from/ knotsBaromVisibWave heightAir tempDewpointWater temp
2015-Mar-27 18:22N 38°59' E 117°46'0 0.0
2015-Mar-27 17:16N 38°59' E 117°46'0 0.0
2015-Mar-27 16:28N 38°59' E 117°46'0 0.0
2015-Mar-27 15:28N 38°59' E 117°46'0 0.0
2015-Mar-27 14:28N 38°59' E 117°46'0 0.0
2015-Mar-27 13:28N 38°59' E 117°46'0 0.0
2015-Mar-27 12:28N 38°59' E 117°46'0 0.0
2015-Mar-27 11:22N 38°59' E 117°46'0 0.0
2015-Mar-27 10:28N 38°59' E 117°46'0 0.0
2015-Mar-27 09:28N 38°59' E 117°46'0 0.0
2015-Mar-27 08:29N 38°59' E 117°46'0 0.0
2015-Mar-27 07:29N 38°59' E 117°46'0 0.0
2015-Mar-27 06:29N 38°59' E 117°46'0 0.0
2015-Mar-27 05:30N 38°59' E 117°46'0 0.0
2015-Mar-27 04:29N 38°59' E 117°46'0 0.0
2015-Mar-27 03:24N 38°59' E 117°46'0 0.0
2015-Mar-27 02:24N 38°59' E 117°46'0 0.0
2015-Mar-27 01:24N 38°59' E 117°46'0 0.0
2015-Mar-27 00:30N 38°59' E 117°46'0 0.0
2015-Mar-26 23:23N 38°59' E 117°46'0 0.0
2015-Mar-26 22:24N 38°59' E 117°46'0 0.0
2015-Mar-26 21:23N 38°59' E 117°46'0 0.0
2015-Mar-26 20:23N 38°59' E 117°46'0 0.0
2015-Mar-26 19:23N 38°59' E 117°46'0 0.0
2015-Mar-26 18:29N 38°59' E 117°46'0 0.0
2015-Mar-26 17:23N 38°59' E 117°46'0 0.0
2015-Mar-26 16:30N 38°59' E 117°46'0 0.0
2015-Mar-26 15:29N 38°59' E 117°46'0 0.0
2015-Mar-26 14:29N 38°59' E 117°46'0 0.0
2015-Mar-26 13:30N 38°59' E 117°46'0 0.0
2015-Mar-26 12:24N 38°59' E 117°46'0 0.0
2015-Mar-26 11:30N 38°59' E 117°46'0 0.0
2015-Mar-26 10:30N 38°59' E 117°46'0 0.0
2015-Mar-26 09:23N 38°59' E 117°46'0 0.0
2015-Mar-26 08:24N 38°59' E 117°46'0 0.0
2015-Mar-26 06:29N 38°59' E 117°46'1 1.3
2015-Mar-26 05:33N 38°58' E 117°47'1210.6
2015-Mar-26 04:26N 38°56' E 118°02'5 1.0
2015-Mar-25 23:12N 38°57' E 118°09'0 0.1
2015-Mar-25 22:24N 38°57' E 118°09'0 0.1
2015-Mar-25 21:18N 38°57' E 118°09'0 0.0
2015-Mar-25 20:18N 38°57' E 118°09'0 0.0
2015-Mar-25 16:12N 38°57' E 118°09'0 0.0
2015-Mar-25 12:30N 38°57' E 118°09'0 0.0
2015-Mar-24 17:30N 38°57' E 118°08'1 1.3
2015-Mar-24 16:33N 38°56' E 118°09'1010.2
2015-Mar-24 15:33N 38°52' E 118°21'7712.8
2015-Mar-24 09:33N 39°08' E 119°57'1813.6
2015-Mar-24 08:15N 39°18' E 120°16'103 6.5
2015-Mar-23 16:25N 40°18' E 122°05'0 0.0
2015-Mar-23 15:31N 40°18' E 122°05'0 0.0
2015-Mar-23 14:31N 40°18' E 122°05'0 0.0
2015-Mar-23 13:25N 40°18' E 122°05'0 0.0
2015-Mar-23 12:19N 40°18' E 122°05'0 0.0
2015-Mar-23 11:31N 40°18' E 122°05'0 0.0
2015-Mar-23 10:31N 40°18' E 122°05'0 0.0
2015-Mar-23 09:31N 40°18' E 122°05'0 0.0
2015-Mar-23 08:25N 40°18' E 122°05'0 0.0
2015-Mar-23 07:31N 40°18' E 122°05'0 0.0
2015-Mar-23 06:31N 40°18' E 122°05'0 0.0
2015-Mar-23 05:25N 40°18' E 122°05'0 0.0
2015-Mar-23 04:31N 40°18' E 122°05'0 0.0
2015-Mar-23 03:31N 40°18' E 122°05'0 0.0
2015-Mar-23 02:25N 40°18' E 122°05'0 0.0
2015-Mar-23 01:25N 40°18' E 122°05'0 0.0
2015-Mar-23 00:25N 40°18' E 122°05'0 0.0
2015-Mar-22 23:31N 40°18' E 122°05'0 0.0
2015-Mar-22 22:31N 40°18' E 122°05'0 0.0
2015-Mar-22 21:25N 40°18' E 122°05'0 0.0
2015-Mar-22 20:19N 40°18' E 122°05'0 0.0
2015-Mar-22 19:19N 40°18' E 122°05'0 0.0
2015-Mar-22 18:31N 40°18' E 122°05'0 0.0
2015-Mar-22 17:25N 40°18' E 122°05'0 0.0
2015-Mar-22 16:31N 40°18' E 122°05'0 0.0
2015-Mar-22 15:31N 40°18' E 122°05'0 0.0
2015-Mar-22 14:31N 40°18' E 122°05'0 0.0
2015-Mar-22 13:13N 40°18' E 122°05'0 0.0
2015-Mar-22 12:25N 40°18' E 122°05'0 0.0
2015-Mar-22 11:31N 40°18' E 122°05'0 0.0
2015-Mar-22 10:31N 40°18' E 122°05'0 0.0
2015-Mar-22 09:31N 40°18' E 122°05'0 0.0
2015-Mar-22 08:31N 40°18' E 122°05'0 0.0
2015-Mar-22 07:31N 40°18' E 122°05'0 0.0
2015-Mar-22 06:25N 40°18' E 122°05'0 0.0
2015-Mar-22 04:13N 40°18' E 122°05'0 0.0
2015-Mar-22 03:25N 40°18' E 122°05'0 0.0
2015-Mar-22 02:25N 40°18' E 122°05'0 0.0
2015-Mar-22 01:31N 40°18' E 122°05'0 0.0
2015-Mar-22 00:31N 40°18' E 122°05'0 0.0
2015-Mar-21 23:31N 40°18' E 122°05'0 0.0
2015-Mar-21 22:31N 40°18' E 122°05'0 0.0
2015-Mar-21 21:07N 40°18' E 122°05'0 0.0
2015-Mar-21 20:31N 40°18' E 122°05'0 0.0
2015-Mar-21 19:31N 40°18' E 122°05'0 0.0
2015-Mar-21 18:31N 40°18' E 122°05'0 0.0
2015-Mar-21 17:31N 40°18' E 122°05'0 0.0
2015-Mar-21 16:25N 40°18' E 122°05'0 0.0
2015-Mar-21 15:25N 40°18' E 122°05'0 0.0
2015-Mar-21 14:31N 40°18' E 122°05'0 0.0
2015-Mar-21 13:25N 40°18' E 122°05'0 0.0
2015-Mar-21 12:31N 40°18' E 122°05'0 0.0
2015-Mar-21 11:25N 40°18' E 122°05'0 0.0
2015-Mar-21 10:31N 40°18' E 122°05'0 0.0
2015-Mar-21 09:31N 40°18' E 122°05'0 0.0
2015-Mar-21 08:31N 40°18' E 122°05'0 0.0
2015-Mar-21 07:25N 40°18' E 122°05'0 0.0
2015-Mar-21 06:31N 40°18' E 122°05'0 0.0
2015-Mar-21 05:31N 40°18' E 122°05'0 0.0
2015-Mar-21 04:31N 40°18' E 122°05'0 0.0
2015-Mar-21 03:25N 40°18' E 122°05'0 0.0
2015-Mar-21 02:31N 40°18' E 122°05'0 0.0
2015-Mar-21 01:25N 40°18' E 122°05'0 0.0
2015-Mar-21 00:31N 40°18' E 122°05'0 0.0
2015-Mar-20 23:31N 40°18' E 122°05'0 0.0
2015-Mar-20 22:31N 40°18' E 122°05'0 0.0
2015-Mar-20 21:31N 40°18' E 122°05'0 0.0
2015-Mar-20 20:31N 40°18' E 122°05'0 0.0
2015-Mar-20 19:31N 40°18' E 122°05'0 0.0
2015-Mar-20 18:31N 40°18' E 122°05'0 0.0
2015-Mar-20 17:31N 40°18' E 122°05'0 0.0
2015-Mar-20 16:31N 40°18' E 122°05'0 0.0
2015-Mar-20 15:25N 40°18' E 122°05'0 0.0
2015-Mar-20 14:25N 40°18' E 122°05'0 0.0
2015-Mar-20 13:25N 40°18' E 122°05'0 0.0
2015-Mar-20 12:31N 40°18' E 122°05'0 0.0
2015-Mar-20 11:31N 40°18' E 122°05'0 0.0
2015-Mar-20 10:25N 40°18' E 122°05'0 0.0
2015-Mar-20 09:31N 40°18' E 122°05'0 0.0
2015-Mar-20 08:31N 40°18' E 122°05'0 0.0
2015-Mar-20 07:31N 40°18' E 122°05'0 0.0
2015-Mar-20 06:25N 40°18' E 122°05'0 0.0
2015-Mar-20 05:31N 40°18' E 122°05'0 0.0
2015-Mar-20 04:31N 40°18' E 122°05'0 0.0
2015-Mar-20 02:13N 40°18' E 122°05'0 0.0
2015-Mar-20 01:07N 40°18' E 122°05'0 0.0
2015-Mar-20 00:25N 40°18' E 122°05'0 0.0
2015-Mar-19 23:07N 40°18' E 122°05'0 0.0
2015-Mar-19 22:31N 40°18' E 122°05'0 0.0
2015-Mar-19 21:31N 40°18' E 122°05'0 0.0
2015-Mar-19 20:07N 40°18' E 122°05'0 0.0
2015-Mar-19 19:25N 40°18' E 122°05'0 0.0
2015-Mar-19 18:19N 40°18' E 122°05'0 0.0
2015-Mar-19 17:25N 40°18' E 122°05'0 0.0
2015-Mar-19 16:07N 40°18' E 122°05'0 0.0
2015-Mar-19 15:25N 40°18' E 122°05'0 0.0
2015-Mar-19 13:25N 40°18' E 122°05'0 0.0
2015-Mar-19 12:25N 40°18' E 122°05'0 0.0
2015-Mar-19 10:31N 40°18' E 122°05'0 0.0
2015-Mar-19 09:19N 40°18' E 122°05'0 0.0
2015-Mar-19 08:31N 40°18' E 122°05'0 0.0
2015-Mar-19 06:07N 40°18' E 122°05'0 0.0
2015-Mar-19 05:28N 40°18' E 122°05'4 4.7
2015-Mar-19 04:32N 40°18' E 121°59'5 4.4
2015-Mar-19 03:27N 40°19' E 121°53'190 9.5
2015-Mar-18 07:22N 37°19' E 123°15'2814.6
2015-Mar-18 05:27N 36°52' E 123°13'  

Dump ship's entire track history